Time;durP1;ratioP1;P1;durP2;ratioP2;P2;SDS_P1;SDS_P2;PMS_P1;PMS_P2;Temp;Humidity;BMP_temperature;BMP_pressure;BME280_temperature;BME280_humidity;BME280_pressure;Samples;Min_cycle;Max_cycle;Signal;HPM_P1;HPM_P2
2023/07/20 00:01:34;;;;;;;0.80;0.80;;;;;;;27.13;61.18;98981.34;5132787;27;20197;-67
2023/07/20 00:04:01;;;;;;;1.80;0.80;;;;;;;27.08;60.33;98971.31;5121378;27;20201;-65
2023/07/20 00:06:28;;;;;;;1.17;0.80;;;;;;;27.10;59.92;98979.88;5120432;27;20204;-65
2023/07/20 00:08:56;;;;;;;0.90;0.90;;;;;;;27.22;60.00;98976.91;5081025;27;20308;-66
2023/07/20 00:11:27;;;;;;;0.93;0.80;;;;;;;27.36;59.57;98976.28;5115645;27;20205;-66
2023/07/20 00:13:54;;;;;;;0.70;0.70;;;;;;;27.51;59.08;98958.88;5101262;27;20193;-67
2023/07/20 00:16:21;;;;;;;0.87;0.87;;;;;;;27.60;58.65;98948.19;5111631;27;20257;-65
2023/07/20 00:18:47;;;;;;;0.70;0.70;;;;;;;27.66;59.13;98930.91;5073611;27;20217;-65
2023/07/20 00:21:14;;;;;;;0.60;0.60;;;;;;;27.48;60.28;98919.72;5076661;27;20250;-66
2023/07/20 00:23:41;;;;;;;1.13;1.07;;;;;;;27.09;62.81;98904.53;5063500;27;20273;-65
2023/07/20 00:26:09;;;;;;;0.87;0.87;;;;;;;26.95;63.45;98905.16;5070557;27;20201;-65
2023/07/20 00:28:35;;;;;;;0.60;0.60;;;;;;;26.93;63.40;98916.84;5061793;27;20197;-67
2023/07/20 00:31:02;;;;;;;0.80;0.80;;;;;;;26.85;64.71;98908.94;5138604;27;20217;-65
2023/07/20 00:33:29;;;;;;;1.60;1.33;;;;;;;26.81;64.21;98918.13;5102214;27;20275;-66
2023/07/20 00:35:56;;;;;;;0.90;0.77;;;;;;;26.78;64.19;98903.47;5084167;27;20197;-66
2023/07/20 00:38:23;;;;;;;0.80;0.80;;;;;;;26.78;64.76;98892.97;5084628;27;20204;-66
2023/07/20 00:40:50;;;;;;;0.53;0.53;;;;;;;26.79;64.32;98894.56;5135944;27;20185;-66
2023/07/20 00:43:19;;;;;;;0.83;0.83;;;;;;;26.79;64.22;98884.06;5091972;27;20227;-66
2023/07/20 00:45:46;;;;;;;0.97;0.97;;;;;;;26.86;64.33;98895.63;5106200;27;20602;-66
2023/07/20 00:48:15;;;;;;;0.47;0.47;;;;;;;26.89;63.63;98897.94;5085397;27;20204;-66
2023/07/20 00:50:43;;;;;;;1.10;1.10;;;;;;;26.96;63.76;98895.47;5119314;27;20241;-65
2023/07/20 00:53:10;;;;;;;0.90;0.90;;;;;;;26.98;63.58;98889.06;5084217;27;20197;-66
2023/07/20 00:55:36;;;;;;;1.00;0.80;;;;;;;27.13;63.66;98903.25;5104150;27;20234;-65
2023/07/20 00:58:04;;;;;;;0.77;0.77;;;;;;;27.24;62.24;98898.66;5051446;27;20196;-66
2023/07/20 01:00:32;;;;;;;0.60;0.60;;;;;;;27.33;61.92;98892.38;5081980;27;20201;-66
2023/07/20 01:02:59;;;;;;;0.83;0.83;;;;;;;27.36;61.98;98897.31;5145971;27;20201;-66
2023/07/20 01:05:35;;;;;;;0.70;0.70;;;;;;;27.42;61.29;98896.66;5089893;27;20200;-66
2023/07/20 01:08:09;;;;;;;0.87;0.87;;;;;;;27.50;61.10;98886.97;5139770;27;20200;-65
2023/07/20 01:10:44;;;;;;;0.93;0.93;;;;;;;27.57;60.73;98874.78;5057392;27;20218;-66
2023/07/20 01:13:12;;;;;;;1.23;0.73;;;;;;;27.51;60.39;98869.38;5058368;27;20204;-66
2023/07/20 01:15:40;;;;;;;1.10;1.10;;;;;;;27.44;59.68;98855.22;5069616;27;20197;-66
2023/07/20 01:18:07;;;;;;;0.87;0.87;;;;;;;27.51;59.36;98864.09;5078735;27;20232;-66
2023/07/20 01:20:36;;;;;;;0.60;0.60;;;;;;;27.59;59.40;98858.84;5073660;27;20193;-65
2023/07/20 01:23:42;;;;;;;0.73;0.57;;;;;;;27.54;59.47;98866.41;5110803;27;20587;-65
2023/07/20 01:26:29;;;;;;;3.10;0.73;;;;;;;27.52;59.32;98871.84;5033364;27;20253;-66
2023/07/20 01:29:14;;;;;;;0.90;0.90;;;;;;;27.52;58.76;98871.03;5077172;27;20235;-66
2023/07/20 01:31:44;;;;;;;1.00;1.00;;;;;;;27.55;58.87;98860.16;5054260;27;20674;-66
2023/07/20 01:34:18;;;;;;;0.90;0.77;;;;;;;27.59;59.37;98858.84;5086903;27;20249;-66
2023/07/20 01:36:46;;;;;;;2.13;0.97;;;;;;;27.64;58.35;98864.41;5053485;27;20194;-65
2023/07/20 01:39:13;;;;;;;0.70;0.70;;;;;;;27.72;58.73;98872.31;5109585;27;20668;-66
2023/07/20 01:41:40;;;;;;;0.77;0.77;;;;;;;27.80;58.38;98864.38;5095047;27;20203;-65
2023/07/20 01:44:07;;;;;;;1.80;0.57;;;;;;;27.79;58.06;98852.19;5103917;27;20676;-66
2023/07/20 01:46:34;;;;;;;0.80;0.80;;;;;;;27.86;58.76;98858.44;5081935;27;20197;-66
2023/07/20 01:49:02;;;;;;;1.00;0.90;;;;;;;27.90;58.61;98854.47;5114820;27;20197;-65
2023/07/20 01:51:29;;;;;;;0.73;0.73;;;;;;;27.92;58.47;98852.47;5092585;27;20213;-66
2023/07/20 01:53:55;;;;;;;0.80;0.80;;;;;;;27.95;58.60;98854.78;5109692;27;20621;-65
2023/07/20 01:56:22;;;;;;;0.43;0.43;;;;;;;27.93;58.33;98854.13;5070815;27;20189;-65
2023/07/20 01:58:49;;;;;;;0.73;0.73;;;;;;;27.95;58.08;98861.88;5079122;27;20197;-66
2023/07/20 02:01:16;;;;;;;3.03;0.73;;;;;;;27.95;57.97;98857.41;5100834;27;20189;-66
2023/07/20 02:03:42;;;;;;;0.80;0.80;;;;;;;27.96;58.47;98864.34;5073962;27;20278;-65
2023/07/20 02:06:10;;;;;;;0.73;0.73;;;;;;;27.93;58.71;98869.94;5055874;27;20197;-66
2023/07/20 02:08:37;;;;;;;0.70;0.70;;;;;;;27.93;59.67;98869.94;5095670;27;20201;-66
2023/07/20 02:11:04;;;;;;;0.67;0.67;;;;;;;27.95;59.49;98873.22;5050740;27;20221;-66
2023/07/20 02:13:31;;;;;;;1.80;0.60;;;;;;;27.96;59.61;98869.59;5105037;27;20201;-66
2023/07/20 02:15:58;;;;;;;2.03;0.60;;;;;;;27.97;59.48;98876.53;5088595;27;20198;-66
2023/07/20 02:18:25;;;;;;;0.80;0.80;;;;;;;27.95;59.84;98873.22;5111792;27;20221;-65
2023/07/20 02:20:54;;;;;;;0.73;0.73;;;;;;;27.94;59.86;98868.97;5090670;27;20266;-66
2023/07/20 02:23:22;;;;;;;1.00;0.83;;;;;;;27.96;60.28;98876.69;5103439;27;20204;-66
2023/07/20 02:25:48;;;;;;;1.90;0.80;;;;;;;27.97;59.78;98876.53;5079783;27;20825;-66
2023/07/20 02:28:16;;;;;;;0.70;0.70;;;;;;;27.98;59.88;98883.41;5126459;27;20197;-66
2023/07/20 02:30:42;;;;;;;0.70;0.70;;;;;;;27.95;60.25;98873.22;5104034;27;20244;-67
2023/07/20 02:33:09;;;;;;;2.57;0.87;;;;;;;27.89;60.28;98875.72;5122322;27;20192;-66
2023/07/20 02:35:36;;;;;;;2.13;0.83;;;;;;;27.84;59.67;98876.22;5138250;27;20192;-66
2023/07/20 02:38:03;;;;;;;0.90;0.90;;;;;;;27.76;59.65;98865.69;5084910;27;20629;-65
2023/07/20 02:40:31;;;;;;;1.10;0.80;;;;;;;27.75;60.95;98861.44;5124699;27;20699;-66
2023/07/20 02:42:57;;;;;;;0.63;0.50;;;;;;;27.71;60.80;98870.66;5086995;27;20204;-66
2023/07/20 02:45:24;;;;;;;0.70;0.70;;;;;;;27.68;60.95;98870.16;5111214;27;20326;-66
2023/07/20 02:47:51;;;;;;;1.30;0.70;;;;;;;27.57;61.14;98868.69;5079893;27;20296;-65
2023/07/20 02:50:18;;;;;;;1.13;0.90;;;;;;;27.47;61.24;98870.69;5072818;27;20217;-65
2023/07/20 02:52:45;;;;;;;4.10;0.80;;;;;;;27.49;61.54;98866.91;5100266;27;20687;-66
2023/07/20 02:55:12;;;;;;;0.87;0.80;;;;;;;27.28;62.21;98857.81;5090243;27;20238;-66
2023/07/20 02:57:40;;;;;;;0.73;0.73;;;;;;;27.27;62.26;98853.56;5072304;27;20201;-66
2023/07/20 03:00:08;;;;;;;1.20;1.20;;;;;;;27.26;62.65;98850.13;5096416;27;20205;-66
2023/07/20 03:02:34;;;;;;;0.70;0.70;;;;;;;27.24;62.92;98867.06;5116635;27;20200;-65
2023/07/20 03:05:05;;;;;;;2.40;1.00;;;;;;;27.25;62.89;98869.50;5079630;27;20197;-66
2023/07/20 03:07:32;;;;;;;0.80;0.80;;;;;;;27.27;62.88;98867.53;5095598;27;20228;-66
2023/07/20 03:09:59;;;;;;;1.30;1.20;;;;;;;27.25;62.70;98880.03;5049055;27;20225;-65
2023/07/20 03:12:26;;;;;;;1.17;1.00;;;;;;;27.25;62.74;98868.69;5049104;27;20200;-65
2023/07/20 03:14:54;;;;;;;1.20;0.40;;;;;;;27.25;62.97;98871.31;5061887;27;20209;-66
2023/07/20 03:17:21;;;;;;;0.80;0.70;;;;;;;27.25;63.71;98866.88;5061571;27;20727;-65
2023/07/20 03:19:47;;;;;;;0.80;0.80;;;;;;;27.27;63.31;98856.19;5064026;27;20756;-66
2023/07/20 03:22:14;;;;;;;0.73;0.73;;;;;;;27.29;63.81;98848.94;5073461;27;20675;-65
2023/07/20 03:24:41;;;;;;;0.50;0.50;;;;;;;27.30;63.76;98855.88;5047116;27;20201;-66
2023/07/20 03:27:08;;;;;;;1.27;1.17;;;;;;;27.29;62.83;98859.47;5105047;27;20208;-66
2023/07/20 03:29:35;;;;;;;0.67;0.67;;;;;;;27.30;62.99;98855.88;5068508;27;20197;-66
2023/07/20 03:32:03;;;;;;;0.73;0.60;;;;;;;27.33;62.68;98852.91;5101066;27;20197;-65
2023/07/20 03:34:30;;;;;;;1.37;1.27;;;;;;;27.28;61.60;98836.78;5056330;27;20197;-66
2023/07/20 03:36:56;;;;;;;0.67;0.67;;;;;;;27.32;62.23;98849.44;5062440;27;20696;-66
2023/07/20 03:39:23;;;;;;;1.00;0.97;;;;;;;27.27;61.52;98829.88;5093295;27;20240;-65
2023/07/20 03:41:50;;;;;;;0.87;0.87;;;;;;;27.36;61.96;98831.50;5094836;27;20189;-66
2023/07/20 03:44:17;;;;;;;1.50;0.80;;;;;;;27.40;62.07;98838.09;5053353;27;20672;-65
2023/07/20 03:46:44;;;;;;;0.90;0.90;;;;;;;27.43;62.29;98835.13;5054515;27;20235;-65
2023/07/20 03:49:12;;;;;;;0.87;0.87;;;;;;;27.44;61.31;98836.78;5108152;27;20250;-66
2023/07/20 03:51:39;;;;;;;1.37;1.00;;;;;;;27.33;62.04;98818.69;5089149;27;20220;-66
2023/07/20 03:54:06;;;;;;;1.90;0.70;;;;;;;27.48;62.36;98833.66;5043748;27;20205;-66
2023/07/20 03:56:35;;;;;;;0.80;0.80;;;;;;;27.52;61.68;98834.97;5051458;27;20196;-66
2023/07/20 03:59:02;;;;;;;0.80;0.80;;;;;;;27.57;62.44;98832.66;5097730;27;20741;-66
2023/07/20 04:01:28;;;;;;;1.10;1.10;;;;;;;27.63;61.97;98841.69;5087079;27;20190;-66
2023/07/20 04:03:55;;;;;;;1.07;0.97;;;;;;;27.69;62.65;98841.00;5083619;27;20216;-65
2023/07/20 04:06:24;;;;;;;0.80;0.80;;;;;;;27.68;62.72;98828.84;5136803;27;20664;-66
2023/07/20 04:08:50;;;;;;;0.60;0.60;;;;;;;27.83;62.39;98844.78;5079440;27;20197;-65
2023/07/20 04:11:17;;;;;;;1.00;0.80;;;;;;;27.91;62.21;98845.59;5093164;27;20688;-66
2023/07/20 04:13:44;;;;;;;1.07;1.00;;;;;;;27.99;61.75;98848.19;5120707;27;20538;-66
2023/07/20 04:16:11;;;;;;;0.70;0.70;;;;;;;28.08;62.21;98849.81;5074443;27;20254;-66
2023/07/20 04:18:37;;;;;;;0.80;0.80;;;;;;;28.13;61.46;98847.50;5081395;27;20228;-66
2023/07/20 04:21:04;;;;;;;1.07;0.97;;;;;;;28.27;60.52;98855.69;5071294;27;20443;-65
2023/07/20 04:23:33;;;;;;;0.93;0.93;;;;;;;28.40;59.27;98858.59;5081234;27;20208;-65
2023/07/20 04:25:59;;;;;;;0.90;0.90;;;;;;;28.51;60.17;98876.66;5090817;27;20708;-65
2023/07/20 04:28:26;;;;;;;0.87;0.87;;;;;;;28.55;59.05;98875.31;5106994;27;20201;-64
2023/07/20 04:30:53;;;;;;;1.70;1.60;;;;;;;28.53;59.31;98877.31;5093100;27;20212;-65
2023/07/20 04:33:20;;;;;;;1.17;1.10;;;;;;;28.48;59.68;98877.00;5085678;27;20660;-64
2023/07/20 04:35:49;;;;;;;1.30;1.20;;;;;;;28.48;59.32;98869.09;5062831;27;20197;-64
2023/07/20 04:38:17;;;;;;;3.07;1.43;;;;;;;28.57;58.72;98863.59;5094878;27;20201;-64
2023/07/20 04:40:45;;;;;;;1.80;0.90;;;;;;;28.66;59.70;98867.03;5101522;27;20279;-65
2023/07/20 04:43:12;;;;;;;5.67;1.07;;;;;;;28.66;58.29;98873.13;5127700;27;20250;-64
2023/07/20 04:45:39;;;;;;;2.17;1.13;;;;;;;28.76;58.13;98883.47;5076714;27;20562;-64
2023/07/20 04:48:08;;;;;;;1.37;0.80;;;;;;;28.78;58.09;98881.50;5078394;27;20209;-65
2023/07/20 04:50:34;;;;;;;0.87;0.87;;;;;;;28.83;59.10;98889.69;5106843;27;20603;-65
2023/07/20 04:53:01;;;;;;;0.83;0.83;;;;;;;28.95;57.56;98888.28;5069091;27;20665;-65
2023/07/20 04:55:28;;;;;;;1.57;0.80;;;;;;;29.06;57.90;98890.53;5083822;27;20204;-65
2023/07/20 04:57:57;;;;;;;0.67;0.67;;;;;;;29.18;58.73;98891.75;5056405;27;20232;-64
2023/07/20 05:00:24;;;;;;;0.97;0.97;;;;;;;29.26;57.04;98890.91;5100222;27;20202;-64
2023/07/20 05:02:50;;;;;;;0.70;0.70;;;;;;;29.36;56.10;98890.69;5104419;27;20657;-64
2023/07/20 05:05:17;;;;;;;9.23;0.83;;;;;;;29.30;57.20;98875.53;5090780;27;20212;-65
2023/07/20 05:07:44;;;;;;;1.10;1.00;;;;;;;29.51;56.66;98880.97;5119759;27;20201;-64
2023/07/20 05:10:11;;;;;;;0.80;0.80;;;;;;;29.66;55.83;98876.53;5088829;27;20683;-65
2023/07/20 05:12:38;;;;;;;0.60;0.60;;;;;;;29.75;54.60;98869.34;5103733;27;20207;-64
2023/07/20 05:15:07;;;;;;;0.80;0.80;;;;;;;30.03;54.58;98884.44;5105695;27;20254;-65
2023/07/20 05:17:34;;;;;;;0.80;0.80;;;;;;;30.28;53.65;98882.31;5091484;27;20237;-66
2023/07/20 05:20:01;;;;;;;0.70;0.70;;;;;;;30.49;52.74;98885.06;5066919;27;20565;-66
2023/07/20 05:22:28;;;;;;;3.92;0.80;;;;;;;30.72;53.28;98882.28;5104628;27;20205;-66
2023/07/20 05:24:54;;;;;;;0.88;0.88;;;;;;;30.95;53.12;98892.69;5084758;27;20197;-66
2023/07/20 05:27:21;;;;;;;1.33;1.30;;;;;;;31.12;52.05;98876.38;5076972;27;20194;-66
2023/07/20 05:29:48;;;;;;;1.88;1.15;;;;;;;31.19;50.79;98858.72;5107121;27;20254;-66
2023/07/20 05:32:15;;;;;;;1.20;1.10;;;;;;;31.33;50.42;98861.50;5121195;27;20231;-66
2023/07/20 05:34:42;;;;;;;0.98;0.95;;;;;;;31.52;49.87;98860.84;5105419;27;20197;-66
2023/07/20 05:37:08;;;;;;;2.17;1.33;;;;;;;31.72;50.68;98870.59;5083700;27;20267;-66
2023/07/20 05:39:35;;;;;;;0.65;0.65;;;;;;;31.87;49.37;98873.13;5047503;27;20201;-66
2023/07/20 05:42:02;;;;;;;0.85;0.85;;;;;;;32.01;49.50;98872.19;5062088;27;20648;-66
2023/07/20 05:44:29;;;;;;;1.00;1.00;;;;;;;32.01;48.38;98861.59;5073863;27;20197;-64
2023/07/20 05:46:56;;;;;;;6.45;0.88;;;;;;;32.24;49.92;98856.84;5050985;27;20221;-66
2023/07/20 05:49:24;;;;;;;0.63;0.63;;;;;;;32.51;50.61;98856.91;5052908;27;20225;-66
2023/07/20 05:51:51;;;;;;;0.70;0.70;;;;;;;32.75;49.62;98849.28;5096502;27;20715;-66
2023/07/20 05:54:18;;;;;;;0.57;0.57;;;;;;;32.91;48.13;98853.38;5152115;27;20256;-66
2023/07/20 05:56:44;;;;;;;0.85;0.73;;;;;;;32.85;46.18;98843.56;5079468;27;20216;-66
2023/07/20 05:59:11;;;;;;;0.57;0.57;;;;;;;32.93;46.53;98851.34;5058780;27;20201;-66
2023/07/20 06:01:38;;;;;;;0.80;0.80;;;;;;;33.04;45.75;98850.75;5093749;27;20644;-66
2023/07/20 06:04:05;;;;;;;5.78;0.60;;;;;;;33.21;45.77;98844.06;5082409;27;20209;-65
2023/07/20 06:06:33;;;;;;;1.60;1.20;;;;;;;33.15;45.99;98839.53;5105411;27;20233;-67
2023/07/20 06:09:03;;;;;;;0.60;0.60;;;;;;;33.32;45.26;98844.44;5107716;27;20202;-66
2023/07/20 06:11:30;;;;;;;0.77;0.77;;;;;;;33.49;45.73;98835.84;5074655;27;20232;-66
2023/07/20 06:13:57;;;;;;;1.02;0.95;;;;;;;33.64;44.64;98833.81;5069423;27;20610;-67
2023/07/20 06:16:24;;;;;;;0.75;0.70;;;;;;;33.90;42.89;98832.94;5065723;27;20220;-66
2023/07/20 06:18:50;;;;;;;0.82;0.80;;;;;;;34.07;42.83;98838.59;5036643;28;20205;-66
2023/07/20 06:21:17;;;;;;;0.98;0.90;;;;;;;34.19;44.28;98829.78;5055581;28;20225;-65
2023/07/20 06:23:46;;;;;;;0.68;0.68;;;;;;;34.38;43.45;98835.25;5070087;28;20202;-66
2023/07/20 06:26:12;;;;;;;1.27;1.17;;;;;;;34.50;43.62;98830.88;5060421;28;20206;-66
2023/07/20 06:28:39;;;;;;;4.18;0.90;;;;;;;34.73;43.64;98831.19;5032131;28;20214;-67
2023/07/20 06:31:06;;;;;;;0.70;0.70;;;;;;;34.87;42.02;98830.06;5046552;28;20218;-66
2023/07/20 06:33:34;;;;;;;0.80;0.80;;;;;;;35.00;42.28;98824.63;5040626;28;20266;-66
2023/07/20 06:36:01;;;;;;;0.68;0.68;;;;;;;35.14;41.85;98812.88;5069345;28;20669;-66
2023/07/20 06:38:29;;;;;;;0.88;0.88;;;;;;;35.36;41.45;98831.13;5031637;28;20198;-66
2023/07/20 06:40:57;;;;;;;5.63;1.02;;;;;;;35.60;43.10;98825.00;5049475;28;20210;-63
2023/07/20 06:43:24;;;;;;;1.20;1.10;;;;;;;35.86;42.51;98830.06;5077294;28;20958;-64
2023/07/20 06:45:54;;;;;;;2.05;1.08;;;;;;;36.09;41.15;98827.53;5030903;28;20221;-65
2023/07/20 06:48:22;;;;;;;3.00;1.05;;;;;;;36.31;41.68;98833.25;5047535;28;20198;-64
2023/07/20 06:50:48;;;;;;;0.70;0.70;;;;;;;36.37;39.58;98831.50;5029279;28;20271;-65
2023/07/20 06:53:15;;;;;;;0.88;0.88;;;;;;;36.26;39.06;98831.22;5067686;28;20211;-65
2023/07/20 06:55:43;;;;;;;0.90;0.90;;;;;;;36.37;40.03;98826.19;5071889;28;20203;-65
2023/07/20 06:58:11;;;;;;;1.20;1.08;;;;;;;36.31;40.16;98817.22;5076489;28;20202;-65
2023/07/20 07:00:38;;;;;;;1.58;0.98;;;;;;;36.57;38.53;98832.09;5084762;28;20199;-65
2023/07/20 07:03:05;;;;;;;0.95;0.95;;;;;;;36.74;38.54;98838.41;5052366;28;20259;-65
2023/07/20 07:05:32;;;;;;;0.93;0.85;;;;;;;36.89;36.67;98833.47;5056954;28;20195;-65
2023/07/20 07:07:58;;;;;;;2.35;1.02;;;;;;;37.09;37.33;98839.38;5077104;28;20691;-64
2023/07/20 07:10:25;;;;;;;0.90;0.90;;;;;;;37.26;35.71;98837.63;5052125;28;20260;-64
2023/07/20 07:12:52;;;;;;;3.50;0.90;;;;;;;37.50;34.89;98829.63;5031899;28;20226;-64
2023/07/20 07:15:20;;;;;;;0.60;0.60;;;;;;;37.75;34.58;98827.53;5048344;28;20206;-64
2023/07/20 07:17:47;;;;;;;1.10;1.10;;;;;;;37.85;34.09;98819.72;5085541;27;20756;-63
2023/07/20 07:20:14;;;;;;;0.73;0.70;;;;;;;37.95;34.24;98821.81;5116970;27;20212;-64
2023/07/20 07:22:43;;;;;;;1.02;1.02;;;;;;;38.13;34.25;98833.16;5086348;27;20726;-63
2023/07/20 07:25:11;;;;;;;0.85;0.85;;;;;;;38.33;33.74;98833.56;5055034;27;20300;-61
2023/07/20 07:27:38;;;;;;;3.85;1.80;;;;;;;38.25;33.49;98836.66;5101821;27;20209;-62
2023/07/20 07:30:06;;;;;;;4.07;0.95;;;;;;;38.30;33.15;98836.72;5095004;27;20200;-62
2023/07/20 07:32:34;;;;;;;0.80;0.80;;;;;;;38.35;32.37;98831.47;5086886;27;20217;-64
2023/07/20 07:35:01;;;;;;;1.33;1.20;;;;;;;38.50;33.40;98822.13;5092537;27;20205;-63
2023/07/20 07:37:27;;;;;;;0.80;0.80;;;;;;;38.53;32.81;98827.00;5078705;27;20675;-64
2023/07/20 07:39:56;;;;;;;1.55;1.45;;;;;;;38.50;32.77;98822.13;5073483;27;20204;-63
2023/07/20 07:42:23;;;;;;;0.80;0.80;;;;;;;38.53;32.63;98818.97;5108203;27;20197;-64
2023/07/20 07:44:50;;;;;;;1.33;1.10;;;;;;;38.56;32.41;98813.13;5090494;27;20205;-63
2023/07/20 07:47:16;;;;;;;1.00;1.00;;;;;;;38.63;33.42;98821.84;5056855;27;20215;-63
2023/07/20 07:49:44;;;;;;;0.93;0.93;;;;;;;38.62;35.68;98818.34;5060718;27;20197;-64
2023/07/20 07:52:11;;;;;;;1.00;1.00;;;;;;;38.78;33.91;98819.41;5078387;27;20288;-64
2023/07/20 07:54:38;;;;;;;1.23;1.23;;;;;;;38.90;33.98;98824.75;5057724;27;20668;-63
2023/07/20 07:57:05;;;;;;;1.30;1.02;;;;;;;39.10;34.15;98819.72;5049342;27;20232;-64
2023/07/20 07:59:36;;;;;;;1.13;1.05;;;;;;;39.05;31.66;98816.94;5102795;27;20696;-63
2023/07/20 08:02:03;;;;;;;1.08;1.08;;;;;;;39.19;33.44;98815.56;5085240;27;20201;-63
2023/07/20 08:04:30;;;;;;;0.60;0.60;;;;;;;39.26;32.30;98813.56;5097365;27;20209;-64
2023/07/20 08:07:00;;;;;;;0.85;0.82;;;;;;;39.20;30.68;98807.25;5089176;27;20217;-63
2023/07/20 08:09:27;;;;;;;3.42;0.90;;;;;;;39.14;31.31;98824.34;5103138;27;20201;-64
2023/07/20 08:11:53;;;;;;;1.00;1.00;;;;;;;38.79;31.16;98826.41;5106128;27;20221;-64
2023/07/20 08:14:20;;;;;;;1.08;0.93;;;;;;;38.59;30.89;98824.19;5097211;27;20224;-64
2023/07/20 08:16:47;;;;;;;1.00;1.00;;;;;;;38.64;32.48;98818.94;5109407;27;20281;-63
2023/07/20 08:19:14;;;;;;;2.90;0.95;;;;;;;38.86;31.85;98824.41;5095750;27;20239;-63
2023/07/20 08:21:41;;;;;;;0.90;0.90;;;;;;;38.99;30.72;98820.59;5079356;27;20673;-63
2023/07/20 08:24:11;;;;;;;0.82;0.82;;;;;;;39.06;30.13;98821.25;5128548;27;20201;-64
2023/07/20 08:26:37;;;;;;;0.60;0.60;;;;;;;39.10;30.59;98830.44;5080626;27;20209;-64
2023/07/20 08:29:04;;;;;;;0.65;0.65;;;;;;;39.07;31.91;98826.38;5098727;27;20209;-64
2023/07/20 08:31:31;;;;;;;0.73;0.73;;;;;;;39.01;30.07;98838.06;5085642;27;20707;-64
2023/07/20 08:33:58;;;;;;;1.15;1.15;;;;;;;39.05;31.55;98836.53;5098243;27;20209;-63
2023/07/20 08:36:24;;;;;;;0.77;0.77;;;;;;;39.23;30.27;98828.22;5061386;27;20205;-64
2023/07/20 08:38:52;;;;;;;0.90;0.90;;;;;;;39.28;30.30;98825.66;5091327;27;20209;-63
2023/07/20 08:41:20;;;;;;;1.05;1.05;;;;;;;39.41;32.70;98823.69;5090588;27;20288;-63
2023/07/20 08:43:47;;;;;;;1.63;0.98;;;;;;;39.60;30.71;98827.72;5061081;27;20209;-64
2023/07/20 08:46:15;;;;;;;0.80;0.80;;;;;;;39.61;29.91;98821.31;5098888;27;20616;-63
2023/07/20 08:48:44;;;;;;;1.10;1.00;;;;;;;39.55;31.94;98823.09;5088533;27;20577;-63
2023/07/20 08:51:12;;;;;;;1.00;1.00;;;;;;;39.62;30.99;98809.50;5080682;27;20690;-64
2023/07/20 08:53:39;;;;;;;0.90;0.90;;;;;;;39.71;30.57;98810.75;5102386;27;20308;-64
2023/07/20 08:56:10;;;;;;;1.65;1.10;;;;;;;39.86;29.87;98811.75;5108517;27;20197;-64
2023/07/20 08:58:40;;;;;;;1.17;1.08;;;;;;;39.90;31.06;98812.06;5108472;27;20209;-64
2023/07/20 09:01:07;;;;;;;1.02;1.00;;;;;;;39.93;28.71;98805.38;5051495;27;20296;-64
2023/07/20 09:03:34;;;;;;;1.83;0.95;;;;;;;39.90;28.98;98798.66;5078738;27;20207;-64
2023/07/20 09:06:01;;;;;;;2.47;1.10;;;;;;;39.90;29.02;98792.47;5089593;27;20202;-64
2023/07/20 09:08:28;;;;;;;0.70;0.70;;;;;;;39.55;29.33;98785.53;5085884;27;20205;-63
2023/07/20 09:10:54;;;;;;;1.17;1.08;;;;;;;39.09;29.56;98799.31;5107252;27;20253;-64
2023/07/20 09:13:21;;;;;;;0.82;0.82;;;;;;;38.96;30.31;98789.75;5128297;27;20212;-63
2023/07/20 09:15:54;;;;;;;0.77;0.77;;;;;;;38.90;30.52;98790.72;5101112;27;20215;-62
2023/07/20 09:18:25;;;;;;;0.73;0.73;;;;;;;39.06;32.12;98765.78;5051870;27;20675;-63
2023/07/20 09:20:52;;;;;;;1.23;1.10;;;;;;;39.18;31.60;98777.22;5088270;27;20204;-64
2023/07/20 09:23:18;;;;;;;0.80;0.80;;;;;;;39.24;30.97;98770.91;5089597;27;20250;-63
2023/07/20 09:25:50;;;;;;;0.80;0.80;;;;;;;39.59;31.47;98757.16;5098194;27;20208;-63
2023/07/20 09:28:17;;;;;;;0.80;0.80;;;;;;;39.84;30.23;98762.84;5134514;27;20721;-63
2023/07/20 09:30:44;;;;;;;1.08;1.00;;;;;;;40.02;30.90;98756.38;5081815;27;20724;-63
2023/07/20 09:33:22;;;;;;;0.77;0.77;;;;;;;39.63;30.29;98752.91;5125748;27;20231;-63
2023/07/20 09:35:49;;;;;;;0.93;0.93;;;;;;;39.33;30.52;98753.31;5109089;27;20219;-63
2023/07/20 09:38:16;;;;;;;2.58;1.00;;;;;;;39.66;31.15;98756.97;5086618;27;20701;-63
2023/07/20 09:40:43;;;;;;;1.00;1.00;;;;;;;39.99;30.67;98751.50;5100574;27;20204;-63
2023/07/20 09:43:11;;;;;;;0.95;0.95;;;;;;;39.98;29.94;98743.69;5107848;27;20580;-64
2023/07/20 09:45:40;;;;;;;1.23;1.02;;;;;;;39.71;29.86;98743.66;5080407;27;20566;-63
2023/07/20 09:48:08;;;;;;;1.30;1.30;;;;;;;39.82;30.60;98745.38;5072860;27;20599;-64
2023/07/20 09:50:41;;;;;;;1.38;1.15;;;;;;;40.05;31.13;98738.94;5095392;27;20192;-64
2023/07/20 09:53:08;;;;;;;0.70;0.70;;;;;;;40.28;30.87;98738.66;5072452;27;20254;-64
2023/07/20 09:55:36;;;;;;;1.10;1.05;;;;;;;40.39;29.50;98735.81;5092070;27;20196;-63
2023/07/20 09:58:03;;;;;;;1.15;1.15;;;;;;;40.44;29.40;98737.75;5083910;27;20220;-64
2023/07/20 10:00:30;;;;;;;1.00;1.00;;;;;;;40.25;30.02;98729.25;5076026;27;20201;-63
2023/07/20 10:02:59;;;;;;;3.92;1.70;;;;;;;40.11;30.55;98728.03;5104941;27;20207;-63
2023/07/20 10:05:28;;;;;;;0.82;0.82;;;;;;;40.08;30.69;98725.81;5114696;27;20657;-63
2023/07/20 10:07:58;;;;;;;1.00;1.00;;;;;;;39.94;29.95;98727.25;5086186;27;20212;-64
2023/07/20 10:10:25;;;;;;;0.82;0.82;;;;;;;40.04;30.62;98716.63;5078813;27;20573;-64
2023/07/20 10:12:52;;;;;;;0.55;0.55;;;;;;;40.28;31.86;98707.25;5079742;27;20217;-64
2023/07/20 10:15:25;;;;;;;1.15;1.05;;;;;;;40.35;30.42;98707.84;5088175;27;20612;-63
2023/07/20 10:18:00;;;;;;;3.47;1.23;;;;;;;40.56;31.85;98697.28;5082774;27;20235;-64
2023/07/20 10:20:28;;;;;;;1.00;1.00;;;;;;;40.68;29.55;98685.28;5084669;27;20189;-63
2023/07/20 10:22:58;;;;;;;0.98;0.98;;;;;;;40.85;29.94;98701.28;5093008;27;20215;-64
2023/07/20 10:25:25;;;;;;;0.80;0.80;;;;;;;40.57;28.77;98698.91;5081637;27;20193;-63
2023/07/20 10:27:52;;;;;;;1.23;1.23;;;;;;;40.53;28.61;98681.69;5072587;27;20216;-63
2023/07/20 10:30:20;;;;;;;0.93;0.93;;;;;;;40.53;29.58;98685.19;5084843;27;20216;-63
2023/07/20 10:32:48;;;;;;;0.73;0.73;;;;;;;40.52;29.69;98682.75;5067209;27;20307;-62
2023/07/20 10:35:16;;;;;;;3.42;1.10;;;;;;;40.45;30.21;98668.72;5094736;27;20196;-63
2023/07/20 10:37:54;;;;;;;1.20;1.10;;;;;;;40.28;28.61;98664.28;5102467;27;20194;-63
2023/07/20 10:40:33;;;;;;;1.10;1.00;;;;;;;40.33;29.47;98672.34;5054799;27;20196;-65
2023/07/20 10:43:01;;;;;;;2.83;0.75;;;;;;;40.52;29.96;98675.47;5050290;27;20251;-66
2023/07/20 10:45:40;;;;;;;0.90;0.90;;;;;;;39.88;29.55;98674.59;5049882;27;20220;-66
2023/07/20 10:48:14;;;;;;;0.73;0.73;;;;;;;39.92;30.06;98670.34;5155329;27;20197;-65
2023/07/20 10:50:41;;;;;;;0.93;0.93;;;;;;;40.13;29.62;98661.44;5154654;27;20287;-65
2023/07/20 10:53:13;;;;;;;0.90;0.90;;;;;;;40.31;30.01;98657.56;5086195;27;20311;-66
2023/07/20 10:55:41;;;;;;;0.95;0.95;;;;;;;40.51;28.38;98663.13;5049355;27;20211;-66
2023/07/20 10:58:11;;;;;;;0.80;0.70;;;;;;;40.38;28.00;98653.63;5049836;27;20236;-65
2023/07/20 11:00:38;;;;;;;4.38;1.08;;;;;;;40.48;28.23;98658.25;5047734;27;20208;-66
2023/07/20 11:03:05;;;;;;;0.70;0.70;;;;;;;40.63;27.14;98660.25;5049393;27;20208;-66
2023/07/20 11:05:40;;;;;;;0.50;0.50;;;;;;;40.73;28.05;98654.97;5048955;27;20257;-66
2023/07/20 11:08:12;;;;;;;1.35;0.70;;;;;;;40.54;28.80;98640.31;5045978;27;20695;-66
2023/07/20 11:10:39;;;;;;;5.97;0.98;;;;;;;40.33;29.38;98644.69;5049064;27;20209;-66
2023/07/20 11:13:31;;;;;;;0.43;0.43;;;;;;;40.56;27.02;98638.16;5088520;27;20217;-66
2023/07/20 11:16:05;;;;;;;3.97;0.75;;;;;;;40.78;27.10;98641.53;5040685;27;20209;-66
2023/07/20 11:18:35;;;;;;;1.85;0.77;;;;;;;40.53;26.88;98644.06;5046010;27;20232;-67
2023/07/20 11:21:03;;;;;;;0.60;0.60;;;;;;;40.53;27.96;98644.88;5096500;27;20205;-67
2023/07/20 11:23:32;;;;;;;0.75;0.70;;;;;;;40.73;26.87;98644.22;5046059;27;20346;-66
2023/07/20 11:26:00;;;;;;;0.70;0.70;;;;;;;40.76;26.43;98635.63;5045219;27;20596;-66
2023/07/20 11:28:27;;;;;;;0.70;0.70;;;;;;;40.79;29.07;98638.59;5061298;27;20588;-67
2023/07/20 11:30:55;;;;;;;0.90;0.90;;;;;;;40.64;28.88;98629.63;5046005;27;20208;-67
2023/07/20 11:33:21;;;;;;;0.75;0.75;;;;;;;40.80;27.88;98634.84;5061345;27;20664;-67
2023/07/20 11:35:51;;;;;;;0.80;0.80;;;;;;;40.75;27.30;98613.31;5092270;27;20692;-66
2023/07/20 11:38:18;;;;;;;1.48;1.38;;;;;;;40.73;27.60;98623.53;5052164;27;20229;-66